Kvitbjoern — LM9158 — position and weather

sailwx.info

Track history (hours):
 
Tides and Currents Weather Stations Pressure Air Temp Water Temp Dewpoint Dewpoint Depression Visibility Wind Speed Wind Dir Waves Ship Positions

Kvitbjoern

Last reported at 2017-Jan-14 13:32 UTC. Time now 2017-Jan-22 10:11 UTC.
Position N 66°22' E 012°21'.

Length 10 m.

Type: Fishing. MMSI: 257454420.

Date/timePositionNaut miles runAvg speedWind from/ knotsBaromVisibWave heightAir tempDewpointWater temp
2017-Jan-14 13:32N 66°22' E 012°21'1 1.0
2017-Jan-14 12:29N 66°22' E 012°24'1 0.7
2017-Jan-14 11:31N 66°23' E 012°24'1 1.5
2017-Jan-14 10:30N 66°24' E 012°26'1 0.9
2017-Jan-14 09:29N 66°23' E 012°26'0 0.5
2017-Jan-14 08:29N 66°23' E 012°27'2 2.4
2017-Jan-14 07:33N 66°22' E 012°22'0 0.0
2017-Jan-13 14:06N 66°22' E 012°21'0 0.1
2017-Jan-13 13:32N 66°22' E 012°21'2 2.2
2017-Jan-13 12:33N 66°23' E 012°27'1 0.8
2017-Jan-13 11:26N 66°23' E 012°24'1 1.0
2017-Jan-13 10:33N 66°22' E 012°23'1 0.7
2017-Jan-13 09:30N 66°22' E 012°21'  
Track history (hours):
 
Tides and Currents Weather Stations Pressure Air Temp Water Temp Dewpoint Dewpoint Depression Visibility Wind Speed Wind Dir Waves Ship Positions

Kvitbjoern

Last reported at 2017-Jan-14 13:32 UTC. Time now 2017-Jan-22 10:11 UTC.
Position N 66°22' E 012°21'.

Length 10 m.

Type: Fishing. MMSI: 257454420.

Date/timePositionNaut miles runAvg speedWind from/ knotsBaromVisibWave heightAir tempDewpointWater temp
2017-Jan-14 13:32N 66°22' E 012°21'1 1.0
2017-Jan-14 12:29N 66°22' E 012°24'1 0.7
2017-Jan-14 11:31N 66°23' E 012°24'1 1.5
2017-Jan-14 10:30N 66°24' E 012°26'1 0.9
2017-Jan-14 09:29N 66°23' E 012°26'0 0.5
2017-Jan-14 08:29N 66°23' E 012°27'2 2.4
2017-Jan-14 07:33N 66°22' E 012°22'0 0.0
2017-Jan-13 14:06N 66°22' E 012°21'0 0.1
2017-Jan-13 13:32N 66°22' E 012°21'2 2.2
2017-Jan-13 12:33N 66°23' E 012°27'1 0.8
2017-Jan-13 11:26N 66°23' E 012°24'1 1.0
2017-Jan-13 10:33N 66°22' E 012°23'1 0.7
2017-Jan-13 09:30N 66°22' E 012°21'  

Dump ship's entire track history